sensor_id;sensor_type;location;lat;lon;timestamp;temperature;humidity
19847;DHT22;10084;50.518;8.588;2023-05-29T00:00:17;14.40;77.50
19847;DHT22;10084;50.518;8.588;2023-05-29T00:02:43;14.40;77.50
19847;DHT22;10084;50.518;8.588;2023-05-29T00:05:13;14.40;77.60
19847;DHT22;10084;50.518;8.588;2023-05-29T00:07:39;14.40;77.50
19847;DHT22;10084;50.518;8.588;2023-05-29T00:10:06;14.40;77.40
19847;DHT22;10084;50.518;8.588;2023-05-29T00:12:33;14.30;77.60
19847;DHT22;10084;50.518;8.588;2023-05-29T00:14:58;14.20;77.60
19847;DHT22;10084;50.518;8.588;2023-05-29T00:17:24;14.20;77.80
19847;DHT22;10084;50.518;8.588;2023-05-29T00:19:50;14.20;78.40
19847;DHT22;10084;50.518;8.588;2023-05-29T00:22:16;14.20;77.70
19847;DHT22;10084;50.518;8.588;2023-05-29T00:24:42;14.10;77.80
19847;DHT22;10084;50.518;8.588;2023-05-29T00:27:08;14.10;77.80
19847;DHT22;10084;50.518;8.588;2023-05-29T00:29:36;14.00;77.80
19847;DHT22;10084;50.518;8.588;2023-05-29T00:32:04;14.00;78.00
19847;DHT22;10084;50.518;8.588;2023-05-29T00:34:30;13.90;77.80
19847;DHT22;10084;50.518;8.588;2023-05-29T00:36:56;13.90;77.80
19847;DHT22;10084;50.518;8.588;2023-05-29T00:39:22;13.80;77.90
19847;DHT22;10084;50.518;8.588;2023-05-29T00:41:48;13.80;78.00
19847;DHT22;10084;50.518;8.588;2023-05-29T00:44:20;13.80;78.10
19847;DHT22;10084;50.518;8.588;2023-05-29T00:46:47;13.70;78.30
19847;DHT22;10084;50.518;8.588;2023-05-29T00:49:14;13.70;78.20
19847;DHT22;10084;50.518;8.588;2023-05-29T00:51:42;13.70;78.40
19847;DHT22;10084;50.518;8.588;2023-05-29T00:54:12;13.70;78.60
19847;DHT22;10084;50.518;8.588;2023-05-29T00:56:41;13.60;78.70
19847;DHT22;10084;50.518;8.588;2023-05-29T00:59:11;13.60;78.70
19847;DHT22;10084;50.518;8.588;2023-05-29T01:01:37;13.60;78.80
19847;DHT22;10084;50.518;8.588;2023-05-29T01:04:05;13.60;78.90
19847;DHT22;10084;50.518;8.588;2023-05-29T01:06:35;13.50;79.00
19847;DHT22;10084;50.518;8.588;2023-05-29T01:09:01;13.50;79.10
19847;DHT22;10084;50.518;8.588;2023-05-29T01:12:02;13.50;79.10
19847;DHT22;10084;50.518;8.588;2023-05-29T01:14:41;13.50;79.40
19847;DHT22;10084;50.518;8.588;2023-05-29T01:17:23;13.40;79.30
19847;DHT22;10084;50.518;8.588;2023-05-29T01:20:20;13.40;79.40
19847;DHT22;10084;50.518;8.588;2023-05-29T01:23:06;13.40;79.60
19847;DHT22;10084;50.518;8.588;2023-05-29T01:25:48;13.30;79.50
19847;DHT22;10084;50.518;8.588;2023-05-29T01:28:20;13.30;79.70
19847;DHT22;10084;50.518;8.588;2023-05-29T01:31:07;13.30;79.80
19847;DHT22;10084;50.518;8.588;2023-05-29T01:33:33;13.20;79.90
19847;DHT22;10084;50.518;8.588;2023-05-29T01:35:58;13.20;80.00
19847;DHT22;10084;50.518;8.588;2023-05-29T01:38:24;13.20;80.10
19847;DHT22;10084;50.518;8.588;2023-05-29T01:40:51;13.20;80.40
19847;DHT22;10084;50.518;8.588;2023-05-29T01:43:17;13.20;80.50
19847;DHT22;10084;50.518;8.588;2023-05-29T01:45:43;13.10;80.50
19847;DHT22;10084;50.518;8.588;2023-05-29T01:48:09;13.10;80.60
19847;DHT22;10084;50.518;8.588;2023-05-29T01:50:35;13.10;80.70
19847;DHT22;10084;50.518;8.588;2023-05-29T01:53:02;13.10;80.90
19847;DHT22;10084;50.518;8.588;2023-05-29T01:55:27;13.00;81.00
19847;DHT22;10084;50.518;8.588;2023-05-29T01:57:54;13.00;81.20
19847;DHT22;10084;50.518;8.588;2023-05-29T02:00:21;13.00;81.40
19847;DHT22;10084;50.518;8.588;2023-05-29T02:02:46;13.00;81.60
19847;DHT22;10084;50.518;8.588;2023-05-29T02:05:13;13.00;81.70
19847;DHT22;10084;50.518;8.588;2023-05-29T02:07:39;13.00;81.90
19847;DHT22;10084;50.518;8.588;2023-05-29T02:10:05;12.90;82.00
19847;DHT22;10084;50.518;8.588;2023-05-29T02:12:31;12.90;82.00
19847;DHT22;10084;50.518;8.588;2023-05-29T02:14:57;12.90;82.20
19847;DHT22;10084;50.518;8.588;2023-05-29T02:17:23;12.90;82.30
19847;DHT22;10084;50.518;8.588;2023-05-29T02:19:49;12.90;82.50
19847;DHT22;10084;50.518;8.588;2023-05-29T02:22:17;12.90;82.60
19847;DHT22;10084;50.518;8.588;2023-05-29T02:24:43;12.90;82.70
19847;DHT22;10084;50.518;8.588;2023-05-29T02:27:09;12.80;83.00
19847;DHT22;10084;50.518;8.588;2023-05-29T02:29:35;12.80;83.10
19847;DHT22;10084;50.518;8.588;2023-05-29T02:32:01;12.80;83.30
19847;DHT22;10084;50.518;8.588;2023-05-29T02:34:26;12.80;83.40
19847;DHT22;10084;50.518;8.588;2023-05-29T02:36:52;12.80;83.50
19847;DHT22;10084;50.518;8.588;2023-05-29T02:39:19;12.70;83.60
19847;DHT22;10084;50.518;8.588;2023-05-29T02:41:45;12.80;83.70
19847;DHT22;10084;50.518;8.588;2023-05-29T02:44:11;12.80;83.80
19847;DHT22;10084;50.518;8.588;2023-05-29T02:46:36;12.70;83.90
19847;DHT22;10084;50.518;8.588;2023-05-29T02:49:02;12.80;83.90
19847;DHT22;10084;50.518;8.588;2023-05-29T02:51:28;12.70;84.10
19847;DHT22;10084;50.518;8.588;2023-05-29T02:53:54;12.70;84.20
19847;DHT22;10084;50.518;8.588;2023-05-29T02:56:20;12.70;84.30
19847;DHT22;10084;50.518;8.588;2023-05-29T02:58:50;12.70;84.30
19847;DHT22;10084;50.518;8.588;2023-05-29T03:01:16;12.70;84.40
19847;DHT22;10084;50.518;8.588;2023-05-29T03:03:42;12.70;84.60
19847;DHT22;10084;50.518;8.588;2023-05-29T03:06:08;12.70;84.80
19847;DHT22;10084;50.518;8.588;2023-05-29T03:08:36;12.60;84.80
19847;DHT22;10084;50.518;8.588;2023-05-29T03:11:09;12.60;85.00
19847;DHT22;10084;50.518;8.588;2023-05-29T03:13:39;12.70;85.10
19847;DHT22;10084;50.518;8.588;2023-05-29T03:16:07;12.70;85.20
19847;DHT22;10084;50.518;8.588;2023-05-29T03:18:34;12.70;85.30
19847;DHT22;10084;50.518;8.588;2023-05-29T03:21:01;12.70;85.40
19847;DHT22;10084;50.518;8.588;2023-05-29T03:23:27;12.70;85.60
19847;DHT22;10084;50.518;8.588;2023-05-29T03:25:53;12.70;85.70
19847;DHT22;10084;50.518;8.588;2023-05-29T03:28:19;12.80;86.30
19847;DHT22;10084;50.518;8.588;2023-05-29T03:30:46;12.70;85.70
19847;DHT22;10084;50.518;8.588;2023-05-29T03:33:15;12.70;85.80
19847;DHT22;10084;50.518;8.588;2023-05-29T03:36:01;12.70;85.80
19847;DHT22;10084;50.518;8.588;2023-05-29T03:38:27;12.70;86.00
19847;DHT22;10084;50.518;8.588;2023-05-29T03:40:56;12.70;86.10
19847;DHT22;10084;50.518;8.588;2023-05-29T03:43:22;12.60;86.20
19847;DHT22;10084;50.518;8.588;2023-05-29T03:45:48;12.60;86.40
19847;DHT22;10084;50.518;8.588;2023-05-29T03:48:14;12.60;86.50
19847;DHT22;10084;50.518;8.588;2023-05-29T03:50:41;12.60;86.70
19847;DHT22;10084;50.518;8.588;2023-05-29T03:53:07;12.60;86.70
19847;DHT22;10084;50.518;8.588;2023-05-29T03:55:32;12.60;86.80
19847;DHT22;10084;50.518;8.588;2023-05-29T03:57:58;12.60;86.90
19847;DHT22;10084;50.518;8.588;2023-05-29T04:00:24;12.60;87.00
19847;DHT22;10084;50.518;8.588;2023-05-29T04:02:51;12.60;87.10
19847;DHT22;10084;50.518;8.588;2023-05-29T04:05:18;12.60;87.10
19847;DHT22;10084;50.518;8.588;2023-05-29T04:07:45;12.70;87.30
19847;DHT22;10084;50.518;8.588;2023-05-29T04:10:11;12.80;87.30
19847;DHT22;10084;50.518;8.588;2023-05-29T04:12:37;12.80;87.30
19847;DHT22;10084;50.518;8.588;2023-05-29T04:15:03;12.90;87.40
19847;DHT22;10084;50.518;8.588;2023-05-29T04:17:29;12.90;87.50
19847;DHT22;10084;50.518;8.588;2023-05-29T04:19:55;12.90;87.50
19847;DHT22;10084;50.518;8.588;2023-05-29T04:22:21;13.00;87.80
19847;DHT22;10084;50.518;8.588;2023-05-29T04:24:47;13.00;87.80
19847;DHT22;10084;50.518;8.588;2023-05-29T04:27:13;13.10;87.80
19847;DHT22;10084;50.518;8.588;2023-05-29T04:29:40;13.10;87.90
19847;DHT22;10084;50.518;8.588;2023-05-29T04:32:09;13.20;88.10
19847;DHT22;10084;50.518;8.588;2023-05-29T04:34:38;13.30;88.20
19847;DHT22;10084;50.518;8.588;2023-05-29T04:37:12;13.30;88.30
19847;DHT22;10084;50.518;8.588;2023-05-29T04:39:39;13.40;88.40
19847;DHT22;10084;50.518;8.588;2023-05-29T04:42:05;13.50;88.60
19847;DHT22;10084;50.518;8.588;2023-05-29T04:44:34;13.60;88.80
19847;DHT22;10084;50.518;8.588;2023-05-29T04:47:00;13.70;88.90
19847;DHT22;10084;50.518;8.588;2023-05-29T04:49:29;13.80;89.40
19847;DHT22;10084;50.518;8.588;2023-05-29T04:51:55;13.90;92.30
19847;DHT22;10084;50.518;8.588;2023-05-29T05:40:51;21.00;96.20
19847;DHT22;10084;50.518;8.588;2023-05-29T05:43:23;21.80;86.60
19847;DHT22;10084;50.518;8.588;2023-05-29T05:46:03;22.30;84.40
19847;DHT22;10084;50.518;8.588;2023-05-29T05:48:29;22.90;84.00
19847;DHT22;10084;50.518;8.588;2023-05-29T05:50:56;23.40;84.60
19847;DHT22;10084;50.518;8.588;2023-05-29T05:53:22;24.00;83.80
19847;DHT22;10084;50.518;8.588;2023-05-29T05:55:47;24.60;82.90
19847;DHT22;10084;50.518;8.588;2023-05-29T05:58:13;25.10;81.90
19847;DHT22;10084;50.518;8.588;2023-05-29T06:00:41;25.70;81.90
19847;DHT22;10084;50.518;8.588;2023-05-29T06:05:49;26.70;79.40
19847;DHT22;10084;50.518;8.588;2023-05-29T06:08:16;27.10;80.90
19847;DHT22;10084;50.518;8.588;2023-05-29T06:10:42;27.60;81.00
19847;DHT22;10084;50.518;8.588;2023-05-29T06:13:09;27.90;81.10
19847;DHT22;10084;50.518;8.588;2023-05-29T06:15:43;28.10;77.80
19847;DHT22;10084;50.518;8.588;2023-05-29T06:18:09;28.30;78.40
19847;DHT22;10084;50.518;8.588;2023-05-29T06:20:35;28.50;78.20
19847;DHT22;10084;50.518;8.588;2023-05-29T06:23:02;28.80;78.40
19847;DHT22;10084;50.518;8.588;2023-05-29T06:25:29;29.10;79.70
19847;DHT22;10084;50.518;8.588;2023-05-29T06:32:56;30.20;82.30
19847;DHT22;10084;50.518;8.588;2023-05-29T06:35:26;30.50;78.20
19847;DHT22;10084;50.518;8.588;2023-05-29T11:52:12;30.10;61.00
19847;DHT22;10084;50.518;8.588;2023-05-29T11:54:39;29.80;63.20
19847;DHT22;10084;50.518;8.588;2023-05-29T11:57:06;29.70;59.50
19847;DHT22;10084;50.518;8.588;2023-05-29T11:59:32;29.60;59.80
19847;DHT22;10084;50.518;8.588;2023-05-29T12:02:02;29.50;60.40
19847;DHT22;10084;50.518;8.588;2023-05-29T12:04:28;29.40;59.70
19847;DHT22;10084;50.518;8.588;2023-05-29T12:06:54;29.30;59.50
19847;DHT22;10084;50.518;8.588;2023-05-29T12:09:27;29.20;60.30
19847;DHT22;10084;50.518;8.588;2023-05-29T12:12:03;29.00;60.50
19847;DHT22;10084;50.518;8.588;2023-05-29T12:14:29;28.90;60.20
19847;DHT22;10084;50.518;8.588;2023-05-29T12:16:55;28.70;59.40
19847;DHT22;10084;50.518;8.588;2023-05-29T12:19:20;28.50;60.20
19847;DHT22;10084;50.518;8.588;2023-05-29T12:21:46;28.40;60.70
19847;DHT22;10084;50.518;8.588;2023-05-29T12:24:12;28.20;62.10
19847;DHT22;10084;50.518;8.588;2023-05-29T12:26:39;28.10;62.50
19847;DHT22;10084;50.518;8.588;2023-05-29T12:29:05;28.00;62.20
19847;DHT22;10084;50.518;8.588;2023-05-29T12:31:31;28.00;61.20
19847;DHT22;10084;50.518;8.588;2023-05-29T12:34:07;28.00;61.70
19847;DHT22;10084;50.518;8.588;2023-05-29T12:36:33;28.00;62.70
19847;DHT22;10084;50.518;8.588;2023-05-29T12:38:59;28.10;64.00
19847;DHT22;10084;50.518;8.588;2023-05-29T12:41:33;28.10;66.20
19847;DHT22;10084;50.518;8.588;2023-05-29T12:44:02;28.10;64.80
19847;DHT22;10084;50.518;8.588;2023-05-29T12:46:41;28.10;65.00
19847;DHT22;10084;50.518;8.588;2023-05-29T18:14:37;22.30;87.40
19847;DHT22;10084;50.518;8.588;2023-05-29T18:17:03;22.30;77.10
19847;DHT22;10084;50.518;8.588;2023-05-29T18:41:50;21.60;80.60
19847;DHT22;10084;50.518;8.588;2023-05-29T18:44:16;21.60;77.80
19847;DHT22;10084;50.518;8.588;2023-05-29T18:46:41;21.50;77.50
19847;DHT22;10084;50.518;8.588;2023-05-29T18:49:07;21.40;76.30
19847;DHT22;10084;50.518;8.588;2023-05-29T18:51:33;21.40;77.90
19847;DHT22;10084;50.518;8.588;2023-05-29T18:53:58;21.30;75.10
19847;DHT22;10084;50.518;8.588;2023-05-29T18:56:24;21.20;76.20
19847;DHT22;10084;50.518;8.588;2023-05-29T18:58:50;21.10;76.50
19847;DHT22;10084;50.518;8.588;2023-05-29T19:01:16;21.10;76.80
19847;DHT22;10084;50.518;8.588;2023-05-29T19:03:42;21.00;59.20
19847;DHT22;10084;50.518;8.588;2023-05-29T19:06:07;21.00;58.60
19847;DHT22;10084;50.518;8.588;2023-05-29T19:08:34;20.90;58.10
19847;DHT22;10084;50.518;8.588;2023-05-29T19:10:59;20.80;57.70
19847;DHT22;10084;50.518;8.588;2023-05-29T19:13:25;20.70;57.50
19847;DHT22;10084;50.518;8.588;2023-05-29T19:15:51;20.60;57.50
19847;DHT22;10084;50.518;8.588;2023-05-29T19:18:17;20.50;57.40
19847;DHT22;10084;50.518;8.588;2023-05-29T19:20:43;20.40;57.30
19847;DHT22;10084;50.518;8.588;2023-05-29T19:23:08;20.30;57.30
19847;DHT22;10084;50.518;8.588;2023-05-29T19:25:34;20.20;57.40
19847;DHT22;10084;50.518;8.588;2023-05-29T19:28:00;20.10;57.50
19847;DHT22;10084;50.518;8.588;2023-05-29T19:30:25;20.10;57.70
19847;DHT22;10084;50.518;8.588;2023-05-29T19:32:51;19.90;57.80
19847;DHT22;10084;50.518;8.588;2023-05-29T19:35:17;19.90;58.20
19847;DHT22;10084;50.518;8.588;2023-05-29T19:37:42;19.80;58.40
19847;DHT22;10084;50.518;8.588;2023-05-29T19:40:08;19.70;58.80
19847;DHT22;10084;50.518;8.588;2023-05-29T19:42:34;19.70;59.50
19847;DHT22;10084;50.518;8.588;2023-05-29T19:45:00;19.60;59.00
19847;DHT22;10084;50.518;8.588;2023-05-29T19:47:26;19.50;59.70
19847;DHT22;10084;50.518;8.588;2023-05-29T19:49:52;19.40;60.00
19847;DHT22;10084;50.518;8.588;2023-05-29T19:52:17;19.40;60.60
19847;DHT22;10084;50.518;8.588;2023-05-29T19:54:44;19.30;61.20
19847;DHT22;10084;50.518;8.588;2023-05-29T19:57:11;19.30;61.70
19847;DHT22;10084;50.518;8.588;2023-05-29T19:59:37;19.20;61.90
19847;DHT22;10084;50.518;8.588;2023-05-29T20:02:04;19.10;62.40
19847;DHT22;10084;50.518;8.588;2023-05-29T20:04:31;19.10;63.10
19847;DHT22;10084;50.518;8.588;2023-05-29T20:06:57;19.00;64.00
19847;DHT22;10084;50.518;8.588;2023-05-29T20:09:23;19.00;65.30
19847;DHT22;10084;50.518;8.588;2023-05-29T20:11:49;18.90;67.30
19847;DHT22;10084;50.518;8.588;2023-05-29T20:14:15;18.90;69.70
19847;DHT22;10084;50.518;8.588;2023-05-29T20:16:41;18.80;71.70
19847;DHT22;10084;50.518;8.588;2023-05-29T20:19:07;18.80;71.20
19847;DHT22;10084;50.518;8.588;2023-05-29T20:21:33;18.80;69.70
19847;DHT22;10084;50.518;8.588;2023-05-29T20:23:59;18.70;68.80
19847;DHT22;10084;50.518;8.588;2023-05-29T20:26:24;18.70;68.40
19847;DHT22;10084;50.518;8.588;2023-05-29T20:28:52;18.60;68.10
19847;DHT22;10084;50.518;8.588;2023-05-29T20:31:18;18.60;66.90
19847;DHT22;10084;50.518;8.588;2023-05-29T20:33:44;18.60;66.80
19847;DHT22;10084;50.518;8.588;2023-05-29T20:36:11;18.50;66.70
19847;DHT22;10084;50.518;8.588;2023-05-29T20:38:36;18.50;66.70
19847;DHT22;10084;50.518;8.588;2023-05-29T20:41:06;18.50;66.80
19847;DHT22;10084;50.518;8.588;2023-05-29T20:43:32;18.40;67.00
19847;DHT22;10084;50.518;8.588;2023-05-29T20:46:03;18.40;67.20
19847;DHT22;10084;50.518;8.588;2023-05-29T20:48:30;18.40;67.70
19847;DHT22;10084;50.518;8.588;2023-05-29T20:50:57;18.30;67.90
19847;DHT22;10084;50.518;8.588;2023-05-29T20:53:22;18.30;68.10
19847;DHT22;10084;50.518;8.588;2023-05-29T20:55:48;18.20;68.00
19847;DHT22;10084;50.518;8.588;2023-05-29T20:58:14;18.20;68.80
19847;DHT22;10084;50.518;8.588;2023-05-29T21:00:40;18.10;68.20
19847;DHT22;10084;50.518;8.588;2023-05-29T21:03:06;18.10;68.20
19847;DHT22;10084;50.518;8.588;2023-05-29T21:05:32;18.00;68.10
19847;DHT22;10084;50.518;8.588;2023-05-29T21:07:58;18.00;68.30
19847;DHT22;10084;50.518;8.588;2023-05-29T21:10:24;17.90;68.50
19847;DHT22;10084;50.518;8.588;2023-05-29T21:12:53;17.90;68.60
19847;DHT22;10084;50.518;8.588;2023-05-29T21:15:19;17.90;68.60
19847;DHT22;10084;50.518;8.588;2023-05-29T21:17:45;17.80;68.70
19847;DHT22;10084;50.518;8.588;2023-05-29T21:20:11;17.80;68.80
19847;DHT22;10084;50.518;8.588;2023-05-29T21:22:38;17.70;68.90
19847;DHT22;10084;50.518;8.588;2023-05-29T21:25:05;17.70;69.00
19847;DHT22;10084;50.518;8.588;2023-05-29T21:27:31;17.70;68.90
19847;DHT22;10084;50.518;8.588;2023-05-29T21:29:57;17.60;68.80
19847;DHT22;10084;50.518;8.588;2023-05-29T21:32:26;17.60;68.80
19847;DHT22;10084;50.518;8.588;2023-05-29T21:34:53;17.60;68.90
19847;DHT22;10084;50.518;8.588;2023-05-29T21:37:21;17.50;68.60
19847;DHT22;10084;50.518;8.588;2023-05-29T21:39:48;17.50;68.40
19847;DHT22;10084;50.518;8.588;2023-05-29T21:42:15;17.40;68.50
19847;DHT22;10084;50.518;8.588;2023-05-29T21:44:44;17.40;68.60
19847;DHT22;10084;50.518;8.588;2023-05-29T21:47:11;17.30;68.80
19847;DHT22;10084;50.518;8.588;2023-05-29T21:49:37;17.30;68.80
19847;DHT22;10084;50.518;8.588;2023-05-29T21:52:03;17.30;68.80
19847;DHT22;10084;50.518;8.588;2023-05-29T21:54:30;17.20;68.60
19847;DHT22;10084;50.518;8.588;2023-05-29T21:56:55;17.20;68.60
19847;DHT22;10084;50.518;8.588;2023-05-29T21:59:21;17.20;68.40
19847;DHT22;10084;50.518;8.588;2023-05-29T22:01:47;17.10;68.20
19847;DHT22;10084;50.518;8.588;2023-05-29T22:04:14;17.10;68.20
19847;DHT22;10084;50.518;8.588;2023-05-29T22:06:40;17.10;68.20
19847;DHT22;10084;50.518;8.588;2023-05-29T22:09:06;17.00;68.00
19847;DHT22;10084;50.518;8.588;2023-05-29T22:11:32;17.00;68.10
19847;DHT22;10084;50.518;8.588;2023-05-29T22:14:01;16.90;68.20
19847;DHT22;10084;50.518;8.588;2023-05-29T22:16:27;16.90;68.80
19847;DHT22;10084;50.518;8.588;2023-05-29T22:18:53;16.90;68.00
19847;DHT22;10084;50.518;8.588;2023-05-29T22:21:19;16.80;67.90
19847;DHT22;10084;50.518;8.588;2023-05-29T22:23:48;16.80;67.80
19847;DHT22;10084;50.518;8.588;2023-05-29T22:26:14;16.80;67.90
19847;DHT22;10084;50.518;8.588;2023-05-29T22:28:40;16.70;67.80
19847;DHT22;10084;50.518;8.588;2023-05-29T22:31:05;16.70;67.80
19847;DHT22;10084;50.518;8.588;2023-05-29T22:33:31;16.70;67.20
19847;DHT22;10084;50.518;8.588;2023-05-29T22:35:58;16.60;67.00
19847;DHT22;10084;50.518;8.588;2023-05-29T22:38:24;16.60;66.90
19847;DHT22;10084;50.518;8.588;2023-05-29T22:40:50;16.60;66.90
19847;DHT22;10084;50.518;8.588;2023-05-29T22:43:17;16.50;66.80
19847;DHT22;10084;50.518;8.588;2023-05-29T22:45:42;16.50;66.80
19847;DHT22;10084;50.518;8.588;2023-05-29T22:48:08;16.50;66.90
19847;DHT22;10084;50.518;8.588;2023-05-29T22:50:34;16.40;66.80
19847;DHT22;10084;50.518;8.588;2023-05-29T22:53:00;16.40;65.80
19847;DHT22;10084;50.518;8.588;2023-05-29T22:55:26;16.40;66.10
19847;DHT22;10084;50.518;8.588;2023-05-29T22:57:54;16.40;65.50
19847;DHT22;10084;50.518;8.588;2023-05-29T23:00:21;16.30;65.50
19847;DHT22;10084;50.518;8.588;2023-05-29T23:02:47;16.30;65.60
19847;DHT22;10084;50.518;8.588;2023-05-29T23:05:13;16.30;65.70
19847;DHT22;10084;50.518;8.588;2023-05-29T23:07:39;16.30;65.70
19847;DHT22;10084;50.518;8.588;2023-05-29T23:10:07;16.30;65.90
19847;DHT22;10084;50.518;8.588;2023-05-29T23:12:33;16.30;66.00
19847;DHT22;10084;50.518;8.588;2023-05-29T23:14:58;16.20;66.10
19847;DHT22;10084;50.518;8.588;2023-05-29T23:17:24;16.20;66.20
19847;DHT22;10084;50.518;8.588;2023-05-29T23:19:50;16.10;66.00
19847;DHT22;10084;50.518;8.588;2023-05-29T23:22:15;16.10;66.00
19847;DHT22;10084;50.518;8.588;2023-05-29T23:24:41;16.10;66.10
19847;DHT22;10084;50.518;8.588;2023-05-29T23:27:06;16.10;66.00
19847;DHT22;10084;50.518;8.588;2023-05-29T23:29:35;16.00;66.10
19847;DHT22;10084;50.518;8.588;2023-05-29T23:32:01;16.00;66.10
19847;DHT22;10084;50.518;8.588;2023-05-29T23:34:27;16.00;66.20
19847;DHT22;10084;50.518;8.588;2023-05-29T23:36:53;15.90;67.10
19847;DHT22;10084;50.518;8.588;2023-05-29T23:39:18;15.90;66.50
19847;DHT22;10084;50.518;8.588;2023-05-29T23:41:44;15.80;66.60
19847;DHT22;10084;50.518;8.588;2023-05-29T23:44:13;15.80;66.80
19847;DHT22;10084;50.518;8.588;2023-05-29T23:46:38;15.70;67.00
19847;DHT22;10084;50.518;8.588;2023-05-29T23:49:05;15.70;67.30
19847;DHT22;10084;50.518;8.588;2023-05-29T23:51:31;15.60;67.50
19847;DHT22;10084;50.518;8.588;2023-05-29T23:53:58;15.60;67.90
19847;DHT22;10084;50.518;8.588;2023-05-29T23:56:25;15.50;68.00
19847;DHT22;10084;50.518;8.588;2023-05-29T23:58:51;15.50;68.00
